Wiarton Airport
CYVV : now visible

Airfield :











YOU CAN JOIN US ON...

 
LOGIN :

Register | Disclaimer

   EN    FR    IT 

 









Legend :    VFR   Marginal VFR   IFR   Intensive IFR   Very Intensive IFR
Visi :
Ceiling :
>= 8 km
>= 3000ft
5 to 8 km
1000 to 3000 ft
1500m to 5 km
500 to 1000 ft
800 to 1500m
200 to 500 ft
< 800m
< 200 ft
Symbols :   Thunderstorms  Fog  Heavy snow  Heavy precipitations  Wind > 20 kt







- Airport Elevation : 729 ft
- IATA code : YVV


CYVV - Wiarton

CURRENT METAR :
  • 211400Z 20005KT 15SM FEW010 FEW070 SCT120 09/05 A2996 RMK SF1AC1AC2 SF TR SLP151

EXPIRED METARs :
  • 211300Z 25003KT 230V290 15SM FEW008 FEW070 08/06 A2994 RMK SF1AC2 SF TR SLP147
  • 211200Z 23003KT 190V260 15SM FEW050 05/05 A2992 RMK SC2 SLP140

TAF TAF CYVV
Valid from the 21 at 14:00 until the 21 at 23:00 UTC


211338Z 2114/2123 VRB03KT P6SM SCT070
TEMPO 2114/2118 BKN070
FM211800 30006KT P6SM BKN070
BECMG 2121/2123 VRB03KT RMK NXT FCST BY 212000Z
CZYZ FIR / North America



MET'MAP, your aeronautical weather chart ! - Copyright ORBIFLY December 2007 - Disclaimer

ORBIFLY MET'MAP TEAM :

Programming & Development : Alexandra Zaïnal
Concept & Development : Baudouin d'Aumeries
Co-Development & Prog : Marc-Olivier Méhu
Technical & hardware support : Manuel Goepfert

Contact : metmap@orbifly.com




SOURCES & CREDITS :

   NOAA       Earth
Advisory